Time;durP1;ratioP1;P1;durP2;ratioP2;P2;SDS_P1;SDS_P2;PMS_P1;PMS_P2;Temp;Humidity;BMP_temperature;BMP_pressure;BME280_temperature;BME280_humidity;BME280_pressure;Samples;Min_cycle;Max_cycle;Signal;HPM_P1;HPM_P2
2023/07/20 00:02:24;;;;;;;14.45;7.40;;;29.40;99.90;;;;;;5033636;28;20025;-66
2023/07/20 00:04:49;;;;;;;8.98;6.80;;;29.60;99.90;;;;;;5031655;28;20025;-67
2023/07/20 00:07:15;;;;;;;9.30;7.20;;;29.60;99.90;;;;;;5032873;28;20382;-67
2023/07/20 00:09:41;;;;;;;10.18;7.05;;;29.70;99.90;;;;;;5033879;28;20033;-66
2023/07/20 00:12:07;;;;;;;9.45;6.32;;;29.60;99.90;;;;;;5033753;28;20073;-67
2023/07/20 00:14:33;;;;;;;13.43;6.57;;;29.50;99.90;;;;;;5034082;28;20067;-67
2023/07/20 00:16:58;;;;;;;13.73;6.13;;;29.50;99.90;;;;;;5032827;28;20433;-67
2023/07/20 00:19:26;;;;;;;11.38;6.07;;;29.40;99.90;;;;;;5029985;28;20101;-67
2023/07/20 00:21:53;;;;;;;9.98;5.82;;;29.40;99.90;;;;;;5031460;28;20029;-67
2023/07/20 00:24:18;;;;;;;11.88;5.88;;;29.40;99.90;;;;;;5032806;28;20075;-67
2023/07/20 00:26:44;;;;;;;13.70;5.90;;;29.30;99.90;;;;;;5032974;28;20113;-67
2023/07/20 00:29:10;;;;;;;11.68;5.75;;;29.20;99.90;;;;;;5032582;28;20022;-67
2023/07/20 00:31:37;;;;;;;8.05;5.97;;;29.20;99.90;;;;;;5033099;28;20505;-67
2023/07/20 00:34:05;;;;;;;10.90;6.22;;;29.10;99.90;;;;;;5033271;28;20041;-67
2023/07/20 00:36:31;;;;;;;10.52;5.28;;;28.90;99.90;;;;;;5033205;28;20112;-67
2023/07/20 00:38:57;;;;;;;10.77;6.20;;;29.00;99.90;;;;;;5031886;28;20113;-66
2023/07/20 00:41:23;;;;;;;6.72;6.03;;;29.00;99.90;;;;;;5042523;28;20028;-67
2023/07/20 00:43:50;;;;;;;12.05;6.45;;;29.10;99.90;;;;;;5032681;28;20033;-67
2023/07/20 00:46:16;;;;;;;8.10;5.93;;;29.00;99.90;;;;;;5032363;28;20033;-67
2023/07/20 00:48:42;;;;;;;10.35;6.30;;;28.80;99.90;;;;;;5033474;28;20025;-67
2023/07/20 00:51:08;;;;;;;8.55;5.50;;;28.80;99.90;;;;;;5032777;28;20053;-67
2023/07/20 00:53:34;;;;;;;11.88;6.20;;;28.70;99.90;;;;;;5032651;28;20025;-67
2023/07/20 00:56:00;;;;;;;10.73;6.72;;;28.80;99.90;;;;;;5031325;28;20032;-66
2023/07/20 00:58:26;;;;;;;7.72;5.50;;;28.70;99.90;;;;;;5029430;28;20045;-67
2023/07/20 01:00:52;;;;;;;6.90;5.60;;;28.70;99.90;;;;;;5031664;28;20029;-67
2023/07/20 01:03:17;;;;;;;6.57;5.97;;;28.50;99.90;;;;;;5025210;28;20037;-67
2023/07/20 01:06:13;;;;;;;9.38;6.20;;;28.50;99.90;;;;;;5032913;28;20095;-67
2023/07/20 01:08:53;;;;;;;9.02;5.90;;;28.50;99.90;;;;;;5028870;28;20398;-67
2023/07/20 01:11:56;;;;;;;12.60;6.60;;;28.60;99.90;;;;;;5028512;28;20502;-67
2023/07/20 01:14:23;;;;;;;6.63;5.47;;;28.40;99.90;;;;;;5025741;28;20419;-67
2023/07/20 01:16:52;;;;;;;7.10;5.65;;;28.20;99.90;;;;;;5030870;28;20104;-67
2023/07/20 01:19:18;;;;;;;7.47;6.03;;;28.20;99.90;;;;;;5031387;28;20028;-67
2023/07/20 01:22:03;;;;;;;9.35;6.43;;;28.20;99.90;;;;;;5031474;28;20029;-67
2023/07/20 01:24:38;;;;;;;7.82;6.20;;;28.20;99.90;;;;;;5023173;28;20470;-67
2023/07/20 01:27:10;;;;;;;8.68;5.93;;;28.10;99.90;;;;;;5029956;28;20029;-67
2023/07/20 01:30:12;;;;;;;7.80;5.68;;;28.20;99.90;;;;;;5023783;28;20416;-67
2023/07/20 01:32:42;;;;;;;12.10;6.40;;;28.10;99.90;;;;;;5022752;28;20052;-66
2023/07/20 01:35:14;;;;;;;8.90;6.18;;;28.00;99.90;;;;;;5031117;28;20179;-67
2023/07/20 01:37:43;;;;;;;8.15;5.90;;;28.00;99.90;;;;;;5013288;28;20049;-67
2023/07/20 01:40:10;;;;;;;9.50;6.13;;;28.00;99.90;;;;;;5027485;28;20043;-67
2023/07/20 01:42:36;;;;;;;12.68;6.57;;;27.80;99.90;;;;;;5037321;28;20510;-67
2023/07/20 01:45:02;;;;;;;12.55;6.97;;;27.80;99.90;;;;;;5035709;28;20109;-67
2023/07/20 01:47:27;;;;;;;11.50;6.13;;;27.90;99.90;;;;;;5036978;28;20091;-67
2023/07/20 01:49:53;;;;;;;7.45;6.38;;;28.00;99.90;;;;;;5035935;28;20045;-67
2023/07/20 01:52:19;;;;;;;9.38;7.00;;;28.00;99.90;;;;;;5032341;28;20037;-66
2023/07/20 01:54:44;;;;;;;9.85;6.63;;;28.00;99.90;;;;;;5023493;28;20037;-67
2023/07/20 01:57:10;;;;;;;10.35;6.80;;;27.90;99.90;;;;;;5020731;28;20030;-67
2023/07/20 01:59:36;;;;;;;11.75;7.40;;;27.80;99.90;;;;;;5031345;28;20049;-67
2023/07/20 02:02:01;;;;;;;8.73;7.55;;;27.60;99.90;;;;;;5031946;28;20124;-68
2023/07/20 02:04:27;;;;;;;10.52;7.55;;;27.70;99.90;;;;;;5036228;28;20026;-67
2023/07/20 02:06:53;;;;;;;10.20;7.35;;;27.80;99.90;;;;;;5036388;28;20095;-67
2023/07/20 02:09:19;;;;;;;10.65;7.50;;;27.40;99.90;;;;;;5036523;28;20035;-66
2023/07/20 02:11:45;;;;;;;9.32;7.80;;;27.50;99.90;;;;;;5036151;28;20069;-67
2023/07/20 02:14:11;;;;;;;10.82;7.78;;;27.30;99.90;;;;;;5034781;28;20416;-66
2023/07/20 02:16:36;;;;;;;10.38;7.20;;;27.30;99.90;;;;;;5032985;28;20037;-66
2023/07/20 02:19:03;;;;;;;12.35;8.43;;;27.30;99.90;;;;;;5035610;28;20113;-67
2023/07/20 02:21:29;;;;;;;10.25;7.88;;;27.30;99.90;;;;;;5035429;28;20024;-67
2023/07/20 02:23:54;;;;;;;9.80;8.02;;;27.30;99.90;;;;;;5036028;28;20025;-68
2023/07/20 02:26:20;;;;;;;10.20;7.72;;;27.20;99.90;;;;;;5035511;28;20391;-67
2023/07/20 02:28:45;;;;;;;11.30;7.72;;;27.30;99.90;;;;;;5026808;28;20506;-67
2023/07/20 02:31:11;;;;;;;9.93;7.72;;;27.30;99.90;;;;;;5033498;28;20113;-67
2023/07/20 02:33:37;;;;;;;14.60;8.18;;;27.30;99.90;;;;;;5034329;28;20037;-67
2023/07/20 02:36:02;;;;;;;11.23;9.10;;;27.30;99.90;;;;;;5035576;28;20048;-67
2023/07/20 02:38:28;;;;;;;9.30;8.10;;;27.20;99.90;;;;;;5027234;28;20057;-67
2023/07/20 02:40:54;;;;;;;12.02;9.52;;;27.10;99.90;;;;;;5029627;28;20073;-67
2023/07/20 02:43:19;;;;;;;12.48;8.98;;;27.00;99.90;;;;;;5021949;28;20022;-67
2023/07/20 02:45:45;;;;;;;9.98;8.63;;;27.20;99.90;;;;;;5021327;28;20040;-67
2023/07/20 02:48:10;;;;;;;12.57;9.15;;;27.20;99.90;;;;;;5036141;28;20033;-67
2023/07/20 02:50:36;;;;;;;10.77;9.32;;;27.20;99.90;;;;;;5032291;28;20029;-67
2023/07/20 02:53:02;;;;;;;10.63;9.57;;;27.10;99.90;;;;;;5032078;28;20140;-68
2023/07/20 02:55:28;;;;;;;10.45;9.38;;;27.00;99.90;;;;;;5034351;28;20033;-67
2023/07/20 02:57:53;;;;;;;10.50;9.40;;;27.00;99.90;;;;;;5035101;28;20075;-67
2023/07/20 03:00:19;;;;;;;10.65;9.50;;;27.20;99.90;;;;;;5035021;28;20487;-68
2023/07/20 03:02:55;;;;;;;10.55;8.52;;;27.10;99.90;;;;;;5034865;28;20504;-67
2023/07/20 03:05:25;;;;;;;10.32;8.32;;;27.10;99.90;;;;;;5033939;28;20028;-67
2023/07/20 03:07:52;;;;;;;9.05;8.15;;;27.20;99.90;;;;;;5030020;28;20050;-67
2023/07/20 03:10:18;;;;;;;12.43;8.40;;;27.10;99.90;;;;;;5028462;28;20059;-67
2023/07/20 03:12:43;;;;;;;11.10;7.85;;;27.00;99.90;;;;;;5034816;28;20414;-67
2023/07/20 03:15:09;;;;;;;11.55;8.30;;;27.10;99.90;;;;;;5034754;28;20041;-68
2023/07/20 03:17:35;;;;;;;11.85;8.88;;;26.90;99.90;;;;;;5035020;28;20029;-67
2023/07/20 03:20:01;;;;;;;9.18;8.23;;;27.00;99.90;;;;;;5034694;28;20087;-67
2023/07/20 03:22:26;;;;;;;11.98;8.38;;;27.00;99.90;;;;;;5033567;28;20025;-67
2023/07/20 03:24:52;;;;;;;10.73;8.52;;;27.00;99.90;;;;;;5034255;28;20075;-67
2023/07/20 03:27:18;;;;;;;9.50;8.15;;;26.90;99.90;;;;;;5032412;28;20041;-67
2023/07/20 03:29:44;;;;;;;11.23;8.38;;;27.00;99.90;;;;;;5037134;28;20029;-67
2023/07/20 03:32:10;;;;;;;10.07;8.32;;;26.90;99.90;;;;;;5034254;28;20391;-67
2023/07/20 03:34:36;;;;;;;10.52;7.25;;;26.80;99.90;;;;;;5034043;28;20025;-67
2023/07/20 03:37:04;;;;;;;10.50;7.63;;;26.90;99.90;;;;;;5033850;28;20168;-67
2023/07/20 03:39:30;;;;;;;8.82;7.85;;;26.90;99.90;;;;;;5034960;28;20041;-67
2023/07/20 03:41:57;;;;;;;10.27;8.30;;;26.90;99.90;;;;;;5034604;28;20029;-67
2023/07/20 03:44:23;;;;;;;9.27;8.27;;;26.90;99.90;;;;;;5032569;28;20454;-67
2023/07/20 03:46:48;;;;;;;11.05;8.02;;;26.90;99.90;;;;;;5036061;28;20037;-67
2023/07/20 03:49:14;;;;;;;9.43;8.40;;;27.00;99.90;;;;;;5034778;28;20379;-67
2023/07/20 03:51:39;;;;;;;10.00;8.60;;;26.80;99.90;;;;;;5034468;28;20076;-67
2023/07/20 03:54:05;;;;;;;11.32;8.98;;;26.90;99.90;;;;;;5035006;28;20022;-67
2023/07/20 03:56:35;;;;;;;11.05;8.38;;;26.90;99.90;;;;;;5033799;28;20442;-67
2023/07/20 03:59:01;;;;;;;13.32;8.77;;;26.90;99.90;;;;;;5032857;28;20399;-67
2023/07/20 04:01:26;;;;;;;9.57;8.68;;;26.90;99.90;;;;;;5031249;28;20029;-67
2023/07/20 04:03:52;;;;;;;13.55;9.30;;;26.80;99.90;;;;;;5034430;28;20096;-67
2023/07/20 04:06:17;;;;;;;12.57;9.20;;;26.90;99.90;;;;;;5033226;28;20558;-67
2023/07/20 04:08:44;;;;;;;10.93;8.02;;;26.80;99.90;;;;;;5032862;28;20391;-67
2023/07/20 04:11:10;;;;;;;11.63;8.75;;;26.90;99.90;;;;;;5032404;28;20205;-68
2023/07/20 04:13:36;;;;;;;10.57;8.25;;;26.80;99.90;;;;;;5033497;28;20029;-67
2023/07/20 04:16:02;;;;;;;10.63;8.93;;;26.80;99.90;;;;;;5033117;28;20034;-67
2023/07/20 04:18:28;;;;;;;15.10;9.23;;;26.80;99.90;;;;;;5031500;28;20470;-67
2023/07/20 04:20:54;;;;;;;9.57;8.35;;;26.70;99.90;;;;;;5033813;28;20029;-67
2023/07/20 04:23:19;;;;;;;13.40;9.55;;;26.70;99.90;;;;;;5034164;28;20029;-67
2023/07/20 04:25:45;;;;;;;10.95;8.95;;;26.70;99.90;;;;;;5034141;28;20474;-67
2023/07/20 04:28:11;;;;;;;12.32;9.35;;;26.60;99.90;;;;;;5028093;28;20061;-67
2023/07/20 04:30:37;;;;;;;11.98;9.40;;;26.60;99.90;;;;;;5029676;28;20025;-67
2023/07/20 04:33:06;;;;;;;12.77;9.32;;;26.60;99.90;;;;;;5030869;28;20026;-67
2023/07/20 04:35:52;;;;;;;13.68;8.38;;;26.60;99.90;;;;;;5031916;28;20030;-67
2023/07/20 04:38:18;;;;;;;12.77;9.40;;;26.60;1.00;;;;;;5033772;28;20391;-67
2023/07/20 04:40:45;;;;;;;11.65;9.10;;;26.60;99.90;;;;;;5033450;28;20377;-67
2023/07/20 04:43:11;;;;;;;12.02;8.88;;;26.60;99.90;;;;;;5032809;28;20025;-67
2023/07/20 04:45:37;;;;;;;12.07;8.88;;;26.60;99.90;;;;;;5031861;28;20395;-66
2023/07/20 04:48:03;;;;;;;10.63;9.55;;;26.60;1.00;;;;;;5032548;28;20033;-67
2023/07/20 04:50:29;;;;;;;11.65;8.32;;;26.70;1.00;;;;;;5028047;28;20089;-67
2023/07/20 04:52:54;;;;;;;11.13;7.30;;;26.60;1.00;;;;;;5028311;28;20066;-67
2023/07/20 04:55:20;;;;;;;11.95;8.52;;;26.50;1.00;;;;;;5033170;28;20026;-67
2023/07/20 04:57:46;;;;;;;9.25;8.25;;;26.40;1.00;;;;;;5033051;28;20037;-66
2023/07/20 05:00:13;;;;;;;12.45;8.15;;;26.40;1.00;;;;;;5032528;28;20048;-67
2023/07/20 05:02:38;;;;;;;9.43;8.30;;;26.50;1.00;;;;;;5032374;28;20113;-67
2023/07/20 05:05:05;;;;;;;10.82;9.60;;;26.50;1.00;;;;;;5030899;28;20100;-67
2023/07/20 05:07:32;;;;;;;11.20;8.05;;;26.40;1.00;;;;;;5029870;28;20030;-67
2023/07/20 05:09:57;;;;;;;11.30;7.18;;;26.30;1.00;;;;;;5032819;28;20467;-67
2023/07/20 05:12:23;;;;;;;11.15;7.03;;;26.70;99.90;;;;;;5032373;28;20044;-67
2023/07/20 05:14:49;;;;;;;13.88;8.05;;;26.90;99.90;;;;;;5032860;28;20421;-67
2023/07/20 05:17:15;;;;;;;10.70;8.07;;;26.70;99.90;;;;;;5029704;28;20108;-67
2023/07/20 05:19:40;;;;;;;9.13;7.78;;;26.60;99.90;;;;;;5023381;28;20049;-67
2023/07/20 05:22:06;;;;;;;9.80;7.95;;;26.60;99.90;;;;;;5029775;28;20104;-67
2023/07/20 05:24:32;;;;;;;9.55;8.23;;;26.70;99.90;;;;;;5032148;28;20102;-69
2023/07/20 05:26:58;;;;;;;10.05;6.20;;;26.70;99.90;;;;;;5032804;28;20110;-65
2023/07/20 05:29:25;;;;;;;11.55;7.53;;;26.70;99.90;;;;;;5031993;28;20013;-65
2023/07/20 05:31:50;;;;;;;10.07;7.32;;;26.80;99.90;;;;;;5030630;28;20406;-66
2023/07/20 05:34:16;;;;;;;11.07;8.63;;;26.80;99.90;;;;;;5032018;28;20021;-66
2023/07/20 05:36:42;;;;;;;10.60;7.40;;;26.80;99.90;;;;;;5031157;28;20037;-66
2023/07/20 05:39:07;;;;;;;12.82;7.78;;;26.70;99.90;;;;;;5028129;28;20292;-65
2023/07/20 05:41:33;;;;;;;8.23;6.75;;;26.60;99.90;;;;;;5033990;28;20075;-65
2023/07/20 05:43:59;;;;;;;8.10;7.30;;;26.70;99.90;;;;;;5031905;28;20034;-65
2023/07/20 05:46:24;;;;;;;10.68;7.88;;;26.80;99.90;;;;;;5031990;28;20060;-64
2023/07/20 05:48:50;;;;;;;9.98;7.43;;;27.00;99.90;;;;;;5031707;28;20021;-64
2023/07/20 05:51:16;;;;;;;14.93;9.27;;;27.00;99.90;;;;;;5031987;28;20479;-64
2023/07/20 05:53:41;;;;;;;12.48;9.40;;;26.90;99.90;;;;;;5031095;28;20032;-64
2023/07/20 05:56:10;;;;;;;10.73;7.70;;;26.60;99.90;;;;;;5029060;28;20065;-63
2023/07/20 05:58:36;;;;;;;13.20;7.68;;;26.80;99.90;;;;;;5030678;28;20104;-64
2023/07/20 06:01:05;;;;;;;13.98;8.38;;;26.90;99.90;;;;;;5029418;28;20050;-64
2023/07/20 06:03:31;;;;;;;12.05;9.50;;;26.90;99.90;;;;;;5025907;28;20033;-65
2023/07/20 06:06:04;;;;;;;11.10;8.23;;;26.80;99.90;;;;;;5032190;28;20056;-64
2023/07/20 06:08:31;;;;;;;10.87;7.70;;;26.80;99.90;;;;;;5029092;28;20080;-64
2023/07/20 06:10:57;;;;;;;14.25;10.57;;;26.80;99.90;;;;;;5028746;28;20291;-65
2023/07/20 06:13:23;;;;;;;8.98;8.07;;;26.80;99.90;;;;;;5029722;28;20037;-65
2023/07/20 06:15:49;;;;;;;12.48;8.80;;;26.90;99.90;;;;;;5030982;28;20029;-65
2023/07/20 06:18:15;;;;;;;14.60;9.15;;;27.00;99.90;;;;;;5031975;28;20030;-65
2023/07/20 06:20:40;;;;;;;12.35;9.25;;;26.90;99.90;;;;;;5026185;28;20059;-65
2023/07/20 06:23:06;;;;;;;16.30;8.30;;;27.00;99.90;;;;;;5020313;28;20041;-65
2023/07/20 06:25:32;;;;;;;14.60;8.65;;;27.10;99.90;;;;;;5031097;28;20022;-65
2023/07/20 06:27:57;;;;;;;11.27;9.75;;;27.10;99.90;;;;;;5029224;28;20097;-66
2023/07/20 06:30:24;;;;;;;10.25;8.93;;;27.00;99.90;;;;;;5032345;28;20479;-65
2023/07/20 06:32:49;;;;;;;10.43;8.43;;;27.10;99.90;;;;;;5035117;28;20035;-65
2023/07/20 06:35:15;;;;;;;11.75;9.18;;;27.00;99.90;;;;;;5034007;28;20461;-64
2023/07/20 06:37:41;;;;;;;12.70;9.00;;;27.00;99.90;;;;;;5035205;28;20036;-64
2023/07/20 06:40:11;;;;;;;10.27;8.27;;;27.10;99.90;;;;;;5031885;28;20025;-65
2023/07/20 06:42:36;;;;;;;12.00;8.25;;;27.20;99.90;;;;;;5029933;28;20024;-64
2023/07/20 06:45:02;;;;;;;12.75;8.95;;;27.30;99.90;;;;;;5033584;28;20422;-64
2023/07/20 06:47:28;;;;;;;14.98;8.70;;;27.40;99.90;;;;;;5031291;28;20563;-64
2023/07/20 06:49:54;;;;;;;14.95;9.23;;;27.40;99.90;;;;;;5034764;28;20095;-70
2023/07/20 06:52:19;;;;;;;11.95;9.50;;;27.30;99.90;;;;;;5032730;28;20123;-67
2023/07/20 06:54:45;;;;;;;11.32;8.70;;;27.30;99.90;;;;;;5041749;28;20032;-67
2023/07/20 06:57:10;;;;;;;10.63;8.38;;;27.40;99.90;;;;;;5034653;28;20029;-68
2023/07/20 06:59:36;;;;;;;10.50;8.05;;;27.70;99.90;;;;;;5030015;28;20499;-67
2023/07/20 07:02:02;;;;;;;11.57;8.32;;;28.20;99.90;;;;;;5027388;28;20499;-67
2023/07/20 07:04:28;;;;;;;13.32;9.02;;;28.30;99.90;;;;;;5027602;28;20032;-66
2023/07/20 07:06:54;;;;;;;11.10;9.48;;;27.90;99.90;;;;;;5029093;28;20059;-64
2023/07/20 07:09:20;;;;;;;13.43;9.57;;;28.20;99.90;;;;;;5033283;28;20053;-66
2023/07/20 07:11:46;;;;;;;12.95;8.93;;;28.00;99.90;;;;;;5035020;28;20629;-66
2023/07/20 07:14:12;;;;;;;10.50;9.43;;;28.30;99.90;;;;;;5028461;28;20109;-66
2023/07/20 07:16:38;;;;;;;11.50;8.25;;;28.40;99.90;;;;;;5033382;28;20064;-66
2023/07/20 07:19:05;;;;;;;12.82;7.93;;;28.40;99.90;;;;;;5051214;28;20353;-66
2023/07/20 07:21:31;;;;;;;13.73;9.00;;;28.70;99.90;;;;;;5032636;28;20159;-67
2023/07/20 07:23:57;;;;;;;9.15;7.00;;;28.40;99.90;;;;;;5033703;28;20108;-66
2023/07/20 07:26:24;;;;;;;10.73;7.35;;;29.00;99.90;;;;;;5029304;28;20032;-66
2023/07/20 07:28:49;;;;;;;12.93;9.10;;;28.60;99.90;;;;;;5030600;28;20602;-66
2023/07/20 07:31:15;;;;;;;14.80;9.35;;;28.70;99.90;;;;;;5031119;28;20136;-67
2023/07/20 07:33:41;;;;;;;13.73;9.38;;;28.70;99.90;;;;;;5033151;28;20116;-67
2023/07/20 07:36:07;;;;;;;12.13;8.40;;;28.50;99.90;;;;;;5031586;28;20029;-66
2023/07/20 07:38:33;;;;;;;12.52;9.77;;;29.00;99.90;;;;;;5033563;28;20026;-66
2023/07/20 07:40:59;;;;;;;11.40;8.73;;;28.80;99.90;;;;;;5030548;28;20445;-66
2023/07/20 07:43:25;;;;;;;17.52;8.48;;;28.80;99.90;;;;;;5034521;28;20383;-66
2023/07/20 07:45:53;;;;;;;13.93;8.98;;;29.10;99.90;;;;;;5033754;28;20010;-65
2023/07/20 07:48:20;;;;;;;13.02;9.57;;;28.80;99.90;;;;;;5031696;28;20026;-66
2023/07/20 07:50:46;;;;;;;11.27;8.82;;;28.70;99.90;;;;;;5030715;28;20407;-66
2023/07/20 07:53:11;;;;;;;10.90;8.82;;;28.60;99.90;;;;;;5030852;28;20041;-66
2023/07/20 07:55:37;;;;;;;12.13;10.20;;;28.80;99.90;;;;;;5030844;28;20434;-67
2023/07/20 07:58:03;;;;;;;53.33;18.92;;;29.00;99.90;;;;;;5033695;28;20109;-66
2023/07/20 08:00:28;;;;;;;10.25;8.73;;;28.70;99.90;;;;;;5029890;28;20040;-67
2023/07/20 08:02:54;;;;;;;13.15;8.82;;;29.10;99.90;;;;;;5027646;28;20034;-65
2023/07/20 08:05:20;;;;;;;15.02;11.23;;;28.70;99.90;;;;;;5023730;28;20025;-69
2023/07/20 08:07:45;;;;;;;14.23;10.70;;;28.70;99.90;;;;;;5024942;28;20383;-70
2023/07/20 08:10:11;;;;;;;15.75;8.80;;;28.70;99.90;;;;;;5025863;28;20060;-69
2023/07/20 08:12:37;;;;;;;12.25;8.60;;;28.90;99.90;;;;;;5030760;28;20037;-69
2023/07/20 08:15:03;;;;;;;12.95;9.68;;;29.00;99.90;;;;;;5034049;28;20039;-69
2023/07/20 08:17:29;;;;;;;12.18;10.07;;;28.90;99.90;;;;;;5034129;28;20479;-69
2023/07/20 08:19:55;;;;;;;14.38;10.00;;;28.90;99.90;;;;;;5034019;28;20018;-69
2023/07/20 08:22:21;;;;;;;14.18;9.40;;;29.10;99.90;;;;;;5034125;28;20021;-69
2023/07/20 08:24:46;;;;;;;20.33;12.68;;;29.30;99.90;;;;;;5034110;28;20033;-69
2023/07/20 08:27:12;;;;;;;17.77;11.48;;;29.30;99.90;;;;;;5034263;28;20108;-69
2023/07/20 08:29:38;;;;;;;20.33;11.82;;;29.20;99.90;;;;;;5033810;28;20037;-69
2023/07/20 08:32:06;;;;;;;13.52;10.23;;;29.10;99.90;;;;;;5033008;28;20056;-69
2023/07/20 08:34:31;;;;;;;14.27;10.75;;;29.20;99.90;;;;;;5033926;28;20475;-69
2023/07/20 08:36:58;;;;;;;13.02;10.57;;;29.20;99.90;;;;;;5034160;28;20037;-69
2023/07/20 08:39:24;;;;;;;19.77;12.43;;;29.30;99.90;;;;;;5033849;28;20044;-69
2023/07/20 08:41:50;;;;;;;11.85;10.57;;;29.30;99.90;;;;;;5033874;28;20112;-69
2023/07/20 08:44:16;;;;;;;17.60;10.88;;;29.50;99.90;;;;;;5033706;28;20112;-68
2023/07/20 08:46:43;;;;;;;11.52;9.93;;;29.50;99.90;;;;;;5033650;28;20037;-69
2023/07/20 08:49:11;;;;;;;14.60;11.60;;;29.60;99.90;;;;;;5033917;28;20104;-69
2023/07/20 08:51:39;;;;;;;13.38;10.75;;;29.60;99.90;;;;;;5019602;28;20040;-69
2023/07/20 08:54:04;;;;;;;15.60;10.15;;;29.30;99.90;;;;;;5033599;28;20079;-69
2023/07/20 08:56:33;;;;;;;13.93;9.85;;;29.70;99.90;;;;;;5033584;28;20021;-69
2023/07/20 08:59:00;;;;;;;14.75;13.18;;;29.70;99.90;;;;;;5033272;28;20061;-69
2023/07/20 09:01:28;;;;;;;15.02;12.60;;;29.80;99.90;;;;;;5033460;28;20164;-69
2023/07/20 09:03:53;;;;;;;13.77;10.88;;;29.60;99.90;;;;;;5033415;28;20029;-69
2023/07/20 09:06:19;;;;;;;15.07;11.15;;;29.60;99.90;;;;;;5033323;28;20035;-69
2023/07/20 09:08:45;;;;;;;14.38;9.75;;;29.90;99.90;;;;;;5033064;28;20018;-68
2023/07/20 09:11:12;;;;;;;14.88;11.13;;;29.90;99.90;;;;;;5033320;28;20033;-69
2023/07/20 09:13:38;;;;;;;13.60;9.98;;;29.90;99.90;;;;;;5019261;28;20057;-69
2023/07/20 09:16:04;;;;;;;13.75;10.32;;;30.00;99.90;;;;;;5033269;28;20037;-69
2023/07/20 09:18:31;;;;;;;10.65;9.50;;;29.80;99.90;;;;;;5033173;28;20025;-69
2023/07/20 09:21:05;;;;;;;13.50;10.75;;;30.20;99.90;;;;;;5032778;28;20059;-69
2023/07/20 09:23:36;;;;;;;17.98;12.20;;;30.10;99.90;;;;;;5033313;28;20479;-69
2023/07/20 09:26:13;;;;;;;19.92;10.57;;;30.20;99.90;;;;;;5019615;28;20067;-69
2023/07/20 09:28:51;;;;;;;13.40;11.02;;;30.10;99.90;;;;;;5032904;28;20040;-69
2023/07/20 09:31:18;;;;;;;12.95;9.30;;;30.30;99.90;;;;;;5020740;28;20032;-69
2023/07/20 09:33:45;;;;;;;13.43;10.18;;;30.90;99.90;;;;;;5033171;28;20433;-69
2023/07/20 09:36:13;;;;;;;14.07;10.73;;;30.60;99.90;;;;;;5031534;28;20074;-69
2023/07/20 09:38:41;;;;;;;11.80;10.00;;;30.40;99.90;;;;;;5033075;28;20033;-68
2023/07/20 09:41:08;;;;;;;13.98;10.27;;;30.40;99.90;;;;;;5032791;28;20017;-68
2023/07/20 09:43:35;;;;;;;13.98;11.02;;;30.90;99.90;;;;;;5032768;28;20021;-68
2023/07/20 09:46:01;;;;;;;13.95;11.13;;;30.60;99.90;;;;;;5031476;28;20444;-69
2023/07/20 09:48:26;;;;;;;13.60;9.82;;;30.70;99.90;;;;;;5033332;28;20060;-68
2023/07/20 09:50:53;;;;;;;12.73;9.15;;;30.70;99.90;;;;;;5032602;28;20483;-69
2023/07/20 09:53:19;;;;;;;11.18;10.07;;;30.90;99.90;;;;;;5032931;28;20080;-68
2023/07/20 09:55:47;;;;;;;11.52;9.48;;;31.00;99.90;;;;;;5032640;28;20034;-68
2023/07/20 09:58:14;;;;;;;11.25;8.70;;;31.00;99.90;;;;;;5032564;28;20436;-68
2023/07/20 10:00:46;;;;;;;10.50;8.57;;;31.20;99.90;;;;;;5032754;28;20487;-68
2023/07/20 10:03:16;;;;;;;15.63;8.70;;;31.30;99.90;;;;;;5032632;28;20375;-68
2023/07/20 10:05:51;;;;;;;15.45;8.98;;;31.40;99.90;;;;;;5035345;28;20399;-68
2023/07/20 10:08:18;;;;;;;14.70;10.73;;;31.30;99.90;;;;;;5036420;28;20033;-68
2023/07/20 10:10:45;;;;;;;11.32;10.00;;;31.10;99.90;;;;;;5036506;28;20411;-69
2023/07/20 10:13:19;;;;;;;11.10;8.95;;;31.20;99.90;;;;;;5036276;28;20029;-68
2023/07/20 10:15:54;;;;;;;10.90;8.85;;;31.50;99.90;;;;;;5036327;28;20118;-68
2023/07/20 10:18:28;;;;;;;14.40;10.35;;;31.50;99.90;;;;;;5036278;28;20029;-70
2023/07/20 10:20:56;;;;;;;13.13;9.93;;;31.40;99.90;;;;;;5036507;28;20029;-70
2023/07/20 10:23:23;;;;;;;11.63;9.35;;;31.70;99.90;;;;;;5036382;28;20026;-70
2023/07/20 10:25:50;;;;;;;12.75;10.18;;;31.80;99.90;;;;;;5036357;28;20483;-70
2023/07/20 10:28:16;;;;;;;13.50;9.15;;;31.90;99.90;;;;;;5035169;28;20036;-69
2023/07/20 10:30:42;;;;;;;13.07;8.95;;;31.90;99.90;;;;;;5029678;28;20033;-69
2023/07/20 10:33:09;;;;;;;14.40;9.23;;;31.90;99.90;;;;;;5028891;28;20422;-69
2023/07/20 10:35:54;;;;;;;11.05;9.70;;;31.90;99.90;;;;;;5031830;28;20018;-69
2023/07/20 10:38:20;;;;;;;11.00;8.68;;;31.60;99.90;;;;;;5029539;28;20040;-70
2023/07/20 10:40:55;;;;;;;12.40;10.57;;;32.10;99.90;;;;;;5035871;28;20029;-70
2023/07/20 10:43:21;;;;;;;10.63;9.50;;;32.00;99.90;;;;;;5036147;28;20036;-70
2023/07/20 10:45:52;;;;;;;13.38;10.85;;;31.80;99.90;;;;;;5034720;28;20399;-70
2023/07/20 10:48:19;;;;;;;14.93;10.13;;;31.80;99.90;;;;;;5035979;28;20032;-69
2023/07/20 10:50:45;;;;;;;12.05;10.02;;;31.50;99.90;;;;;;5035918;28;20029;-69
2023/07/20 10:53:12;;;;;;;11.15;10.05;;;31.60;99.90;;;;;;5034563;28;20407;-69
2023/07/20 10:55:38;;;;;;;15.05;10.63;;;31.80;99.90;;;;;;5036073;28;20049;-69
2023/07/20 10:58:17;;;;;;;12.95;10.05;;;32.00;99.90;;;;;;5034182;28;20048;-69
2023/07/20 11:01:02;;;;;;;12.38;11.00;;;31.90;99.90;;;;;;5035725;28;20026;-69
2023/07/20 11:03:33;;;;;;;12.82;9.02;;;32.20;99.90;;;;;;5035766;28;20036;-69
2023/07/20 11:05:59;;;;;;;12.98;10.77;;;32.10;99.90;;;;;;5035895;28;20034;-69
2023/07/20 11:08:42;;;;;;;13.55;8.68;;;32.20;99.90;;;;;;5035456;28;20080;-69
2023/07/20 11:11:24;;;;;;;12.07;8.95;;;32.60;99.90;;;;;;5034254;28;20030;-69
2023/07/20 11:14:04;;;;;;;10.23;8.65;;;32.80;99.90;;;;;;5034199;28;20391;-69
2023/07/20 11:16:39;;;;;;;12.68;9.35;;;32.80;99.90;;;;;;5034107;28;20033;-69
2023/07/20 11:19:06;;;;;;;12.73;8.80;;;32.60;99.90;;;;;;5016885;28;20487;-69
2023/07/20 11:21:41;;;;;;;8.85;7.95;;;32.90;99.90;;;;;;5022506;28;20033;-70
2023/07/20 11:24:07;;;;;;;11.88;8.13;;;32.70;99.90;;;;;;5025950;28;20029;-65
2023/07/20 11:26:49;;;;;;;10.40;7.93;;;33.30;99.90;;;;;;5033474;28;20391;-64
2023/07/20 11:29:16;;;;;;;10.02;7.57;;;33.60;99.90;;;;;;5038010;28;20082;-63
2023/07/20 11:31:43;;;;;;;8.88;7.55;;;34.10;99.90;;;;;;5034935;28;20025;-63
2023/07/20 11:34:14;;;;;;;9.27;7.93;;;34.30;99.90;;;;;;5033980;28;20026;-64
2023/07/20 11:36:45;;;;;;;12.90;8.43;;;36.80;99.90;;;;;;5034811;28;20029;-70
2023/07/20 11:39:13;;;;;;;12.95;7.97;;;40.50;99.90;;;;;;5034487;28;20029;-71
2023/07/20 11:41:43;;;;;;;15.77;8.82;;;41.90;99.90;;;;;;5034691;28;20025;-67
2023/07/20 11:44:13;;;;;;;8.98;7.93;;;42.80;99.90;;;;;;5033769;28;20036;-67
2023/07/20 11:46:42;;;;;;;13.75;8.50;;;42.00;99.90;;;;;;5034357;28;20060;-66
2023/07/20 11:49:08;;;;;;;11.73;8.45;;;43.70;99.90;;;;;;5034712;28;20120;-66
2023/07/20 11:51:35;;;;;;;8.35;7.53;;;44.80;99.90;;;;;;5032701;28;20487;-65
2023/07/20 11:54:02;;;;;;;10.02;8.60;;;45.00;99.90;;;;;;5034478;28;20032;-65
2023/07/20 11:56:28;;;;;;;8.50;7.70;;;46.10;99.90;;;;;;5034475;28;20371;-68
2023/07/20 11:59:02;;;;;;;9.43;8.52;;;45.90;99.90;;;;;;5032978;28;20049;-66
2023/07/20 12:01:31;;;;;;;8.90;8.00;;;46.30;99.90;;;;;;5034494;28;20475;-66
2023/07/20 12:04:01;;;;;;;9.95;8.93;;;44.90;99.90;;;;;;5034346;28;20028;-63
2023/07/20 12:06:28;;;;;;;10.35;9.27;;;43.10;99.90;;;;;;5032312;28;20025;-63
2023/07/20 12:09:01;;;;;;;11.23;7.90;;;41.00;99.90;;;;;;5020023;28;20030;-63
2023/07/20 12:11:39;;;;;;;9.27;8.40;;;41.60;99.90;;;;;;5023386;28;20032;-70
2023/07/20 12:14:07;;;;;;;19.33;9.20;;;43.40;99.90;;;;;;5022479;28;20087;-70
2023/07/20 12:16:35;;;;;;;10.50;8.73;;;43.90;99.90;;;;;;5031100;28;20033;-73
2023/07/20 12:19:08;;;;;;;10.30;9.07;;;44.70;99.90;;;;;;5033101;28;20022;-72
2023/07/20 12:21:42;;;;;;;10.18;9.20;;;44.50;99.90;;;;;;5030237;28;20116;-68
2023/07/20 12:24:11;;;;;;;10.73;9.00;;;43.00;99.90;;;;;;5027675;28;20060;-73
2023/07/20 12:26:37;;;;;;;13.05;9.63;;;41.20;99.90;;;;;;5024951;28;20017;-75
2023/07/20 12:29:03;;;;;;;10.20;9.20;;;41.30;99.90;;;;;;5032947;28;20025;-68
2023/07/20 12:31:30;;;;;;;9.95;8.95;;;41.40;99.90;;;;;;5024264;28;20124;-65
2023/07/20 12:33:57;;;;;;;10.30;8.85;;;41.60;99.90;;;;;;5027018;28;20117;-66
2023/07/20 12:36:23;;;;;;;10.40;9.40;;;42.20;99.90;;;;;;5029191;28;20033;-65
2023/07/20 12:38:49;;;;;;;10.10;9.15;;;41.70;99.90;;;;;;5024679;28;20541;-65
2023/07/20 12:41:15;;;;;;;9.90;8.90;;;41.90;99.90;;;;;;5032451;28;20033;-65